createdAt,value
2019-04-01T00:01:24.290Z,99.90
2019-04-01T00:03:54.634Z,99.90
2019-04-01T00:06:24.505Z,99.90
2019-04-01T00:08:54.527Z,99.90
2019-04-01T00:11:25.216Z,99.90
2019-04-01T00:13:55.180Z,99.90
2019-04-01T00:16:25.170Z,99.90
2019-04-01T00:19:02.868Z,99.90
2019-04-01T00:21:26.932Z,99.90
2019-04-01T00:23:57.242Z,99.90
2019-04-01T00:26:27.606Z,99.90
2019-04-01T00:28:57.518Z,99.90
2019-04-01T00:31:27.791Z,99.90
2019-04-01T00:33:57.702Z,99.90
2019-04-01T00:36:27.585Z,99.90
2019-04-01T00:38:57.966Z,99.90
2019-04-01T00:41:28.216Z,99.90
2019-04-01T00:44:16.492Z,99.90
2019-04-01T00:46:46.934Z,99.90
2019-04-01T00:49:16.786Z,99.90
2019-04-01T00:51:47.099Z,99.90
2019-04-01T00:54:17.103Z,99.90
2019-04-01T00:56:47.346Z,99.90
2019-04-01T00:59:17.580Z,99.90
2019-04-01T01:01:47.444Z,99.90
2019-04-01T01:04:17.357Z,99.90
2019-04-01T01:06:47.732Z,99.90
2019-04-01T01:09:17.642Z,99.90
2019-04-01T01:11:48.262Z,99.90
2019-04-01T01:14:18.222Z,99.90
2019-04-01T01:16:48.131Z,99.90
2019-04-01T01:19:18.309Z,99.90
2019-04-01T01:21:48.283Z,99.90
2019-04-01T01:24:18.213Z,99.90
2019-04-01T01:26:48.769Z,99.90
2019-04-01T01:29:18.728Z,99.90
2019-04-01T01:31:48.623Z,99.90
2019-04-01T01:34:18.653Z,99.90
2019-04-01T01:36:48.604Z,99.90
2019-04-01T01:39:18.440Z,99.90
2019-04-01T01:41:49.009Z,99.90
2019-04-01T01:44:19.016Z,99.90
2019-04-01T01:46:48.930Z,99.90
2019-04-01T01:49:19.249Z,99.90
2019-04-01T01:51:49.213Z,99.90
2019-04-01T01:54:19.176Z,99.90
2019-04-01T01:56:49.709Z,99.90
2019-04-01T01:59:19.693Z,99.90
2019-04-01T02:01:49.605Z,99.90
2019-04-01T02:04:19.873Z,99.90
2019-04-01T02:06:49.845Z,99.90
2019-04-01T02:09:19.769Z,99.90
2019-04-01T02:11:50.439Z,99.90
2019-04-01T02:14:20.391Z,99.90
2019-04-01T02:16:50.297Z,99.90
2019-04-01T02:19:20.580Z,99.90
2019-04-01T02:21:50.547Z,99.90
2019-04-01T02:24:20.439Z,99.90
2019-04-01T02:26:51.149Z,99.90
2019-04-01T02:29:21.143Z,99.90
2019-04-01T02:31:51.062Z,99.90
2019-04-01T02:34:21.416Z,99.90
2019-04-01T02:36:51.394Z,99.90
2019-04-01T02:39:21.286Z,99.90
2019-04-01T02:41:51.760Z,99.90
2019-04-01T02:44:21.750Z,99.90
2019-04-01T02:46:51.678Z,99.90
2019-04-01T02:49:21.974Z,99.90
2019-04-01T02:51:52.115Z,99.90
2019-04-01T02:54:22.486Z,99.90
2019-04-01T02:56:52.761Z,99.90
2019-04-01T02:59:22.699Z,99.90
2019-04-01T03:01:52.964Z,99.90
2019-04-01T03:04:22.977Z,99.90
2019-04-01T03:06:52.976Z,99.90
2019-04-01T03:09:23.297Z,99.90
2019-04-01T03:11:53.508Z,99.90
2019-04-01T03:14:23.425Z,99.90
2019-04-01T03:16:53.874Z,99.90
2019-04-01T03:19:23.805Z,99.90
2019-04-01T03:21:53.762Z,99.90
2019-04-01T03:24:24.228Z,99.90
2019-04-01T03:26:54.470Z,99.90
2019-04-01T03:29:24.426Z,99.90
2019-04-01T03:31:54.710Z,99.90
2019-04-01T03:34:24.628Z,99.90
2019-04-01T03:36:54.558Z,99.90
2019-04-01T03:39:24.845Z,99.90
2019-04-01T03:41:55.190Z,99.90
2019-04-01T03:44:25.144Z,99.90
2019-04-01T03:46:55.069Z,99.90
2019-04-01T03:49:25.333Z,99.90
2019-04-01T03:51:55.283Z,99.90
2019-04-01T03:54:25.245Z,99.90
2019-04-01T03:56:55.794Z,99.90
2019-04-01T03:59:25.771Z,99.90
2019-04-01T04:01:56.239Z,99.90
2019-04-01T04:04:26.124Z,99.90
2019-04-01T04:06:56.271Z,99.90
2019-04-01T04:09:26.263Z,99.90
2019-04-01T04:11:56.282Z,99.90
2019-04-01T04:14:26.235Z,99.90
2019-04-01T04:16:56.318Z,99.90
2019-04-01T04:19:26.491Z,99.90
2019-04-01T04:21:56.417Z,99.90
2019-04-01T04:24:26.289Z,99.90
2019-04-01T04:26:56.637Z,99.90
2019-04-01T04:29:26.619Z,99.90
2019-04-01T04:31:56.660Z,99.90
2019-04-01T04:34:26.968Z,99.90
2019-04-01T04:36:57.087Z,99.90
2019-04-01T04:39:26.952Z,99.90
2019-04-01T04:41:57.267Z,99.90
2019-04-01T04:44:27.668Z,99.90
2019-04-01T04:46:57.746Z,99.90
2019-04-01T04:49:28.105Z,99.90
2019-04-01T04:51:58.061Z,99.90
2019-04-01T04:54:27.999Z,99.90
2019-04-01T04:56:58.276Z,99.90
2019-04-01T04:59:28.650Z,99.90
2019-04-01T05:01:58.570Z,99.90
2019-04-01T05:04:28.839Z,99.90
2019-04-01T05:06:58.773Z,99.90
2019-04-01T05:09:28.623Z,99.90
2019-04-01T05:11:58.908Z,99.90
2019-04-01T05:14:29.031Z,99.90
2019-04-01T05:16:59.092Z,99.90
2019-04-01T05:19:29.456Z,99.90
2019-04-01T05:22:00.087Z,99.90
2019-04-01T05:24:31.290Z,99.90
2019-04-01T05:27:04.076Z,99.90
2019-04-01T05:29:35.764Z,99.90
2019-04-01T05:32:06.457Z,99.90
2019-04-01T05:34:39.798Z,99.90
2019-04-01T05:37:09.845Z,99.90
2019-04-01T05:39:39.842Z,99.90
2019-04-01T05:42:10.271Z,99.90
2019-04-01T05:44:40.717Z,99.90
2019-04-01T05:47:10.834Z,99.90
2019-04-01T05:49:41.463Z,99.90
2019-04-01T05:52:11.443Z,99.90
2019-04-01T05:54:41.417Z,99.90
2019-04-01T05:57:11.509Z,99.90
2019-04-01T05:59:41.838Z,99.90
2019-04-01T06:02:12.367Z,99.90
2019-04-01T06:04:42.298Z,99.90
2019-04-01T06:07:12.332Z,99.90
2019-04-01T06:09:42.704Z,99.90
2019-04-01T06:12:12.800Z,99.90
2019-04-01T06:14:43.495Z,99.90
2019-04-01T06:17:13.401Z,99.90
2019-04-01T06:19:43.714Z,99.90
2019-04-01T06:22:14.144Z,99.90
2019-04-01T06:24:44.010Z,99.90
2019-04-01T06:27:14.293Z,99.90
2019-04-01T06:29:46.049Z,99.90
2019-04-01T06:32:16.067Z,99.90
2019-04-01T06:34:52.799Z,99.90
2019-04-01T06:37:18.445Z,99.90
2019-04-01T06:39:48.417Z,99.90
2019-04-01T06:42:18.435Z,99.90
2019-04-01T06:44:49.210Z,99.90
2019-04-01T06:47:19.119Z,99.90
2019-04-01T06:49:49.151Z,99.90
2019-04-01T06:52:19.589Z,99.90
2019-04-01T06:54:49.459Z,99.90
2019-04-01T06:57:19.634Z,99.90
2019-04-01T06:59:50.360Z,99.90
2019-04-01T07:02:20.464Z,99.90
2019-04-01T07:04:51.202Z,99.90
2019-04-01T07:07:21.112Z,99.90
2019-04-01T07:09:51.016Z,99.90
2019-04-01T07:12:21.552Z,99.90
2019-04-01T07:14:52.003Z,99.90
2019-04-01T07:17:22.303Z,99.90
2019-04-01T07:19:52.435Z,99.90
2019-04-01T07:22:22.570Z,99.90
2019-04-01T07:24:52.894Z,99.90
2019-04-01T07:27:22.858Z,99.90
2019-04-01T07:29:53.315Z,99.90
2019-04-01T07:32:23.350Z,99.90
2019-04-01T07:34:53.271Z,99.90
2019-04-01T07:37:23.673Z,99.90
2019-04-01T07:39:53.702Z,99.90
2019-04-01T07:42:23.654Z,99.90
2019-04-01T07:44:54.866Z,99.90
2019-04-01T07:47:24.910Z,99.90
2019-04-01T07:49:55.316Z,99.90
2019-04-01T07:52:25.188Z,99.90
2019-04-01T07:54:55.304Z,99.90
2019-04-01T07:57:25.870Z,99.90
2019-04-01T07:59:56.939Z,99.90
2019-04-01T08:02:27.365Z,99.90
2019-04-01T08:04:57.337Z,99.90
2019-04-01T08:07:27.242Z,99.90
2019-04-01T08:09:57.596Z,99.90
2019-04-01T08:12:28.141Z,99.90
2019-04-01T08:14:58.871Z,99.90
2019-04-01T08:17:28.892Z,99.90
2019-04-01T08:19:59.214Z,99.90
2019-04-01T08:22:29.083Z,99.90
2019-04-01T08:24:58.954Z,99.90
2019-04-01T08:27:29.370Z,99.90
2019-04-01T08:29:59.721Z,99.90
2019-04-01T08:32:29.643Z,99.90
2019-04-01T08:35:00.050Z,99.90
2019-04-01T08:37:30.038Z,99.90
2019-04-01T08:39:59.913Z,99.90
2019-04-01T08:42:30.395Z,99.90
2019-04-01T08:45:00.650Z,99.90
2019-04-01T08:47:30.544Z,99.90
2019-04-01T08:50:00.865Z,99.90
2019-04-01T08:52:30.965Z,99.90
2019-04-01T08:55:01.607Z,99.90
2019-04-01T08:57:31.714Z,99.90
2019-04-01T09:00:02.366Z,99.90
2019-04-01T09:02:32.271Z,99.90
2019-04-01T09:05:02.255Z,99.90
2019-04-01T09:07:32.659Z,99.90
2019-04-01T09:10:03.292Z,99.90
2019-04-01T09:12:34.218Z,99.90
2019-04-01T09:15:05.387Z,99.90
2019-04-01T09:17:35.459Z,99.90
2019-04-01T09:20:06.379Z,99.90
2019-04-01T09:22:36.518Z,99.70
2019-04-01T09:25:06.805Z,99.90
2019-04-01T09:27:36.858Z,99.90
2019-04-01T09:30:09.773Z,97.60
2019-04-01T09:32:39.709Z,96.70
2019-04-01T09:35:10.613Z,95.90
2019-04-01T09:37:40.494Z,97.50
2019-04-01T09:40:11.964Z,93.80
2019-04-01T09:42:41.910Z,97.30
2019-04-01T09:45:12.434Z,91.40
2019-04-01T09:47:42.742Z,83.10
2019-04-01T09:50:12.986Z,89.70
2019-04-01T09:52:43.411Z,92.10
2019-04-01T09:55:13.672Z,88.50
2019-04-01T09:57:43.654Z,94.40
2019-04-01T10:00:15.501Z,85.20
2019-04-01T10:02:45.393Z,98.80
2019-04-01T10:05:16.341Z,72.50
2019-04-01T10:07:46.524Z,77.30
2019-04-01T10:10:17.321Z,91.20
2019-04-01T10:12:47.244Z,66.00
2019-04-01T10:15:17.587Z,71.20
2019-04-01T10:17:47.873Z,67.30
2019-04-01T10:20:18.538Z,73.00
2019-04-01T10:22:48.384Z,66.80
2019-04-01T10:25:18.631Z,59.80
2019-04-01T10:27:48.728Z,62.10
2019-04-01T10:30:20.418Z,58.70
2019-04-01T10:32:50.412Z,55.80
2019-04-01T10:35:21.949Z,54.30
2019-04-01T10:37:51.837Z,55.30
2019-04-01T10:40:21.784Z,58.50
2019-04-01T10:42:52.064Z,55.70
2019-04-01T10:45:22.522Z,57.20
2019-04-01T10:47:52.482Z,55.20
2019-04-01T10:50:23.227Z,52.80
2019-04-01T10:52:53.312Z,57.80
2019-04-01T10:55:23.559Z,51.00
2019-04-01T10:57:54.293Z,51.60
2019-04-01T11:00:24.958Z,51.30
2019-04-01T11:02:55.296Z,50.60
2019-04-01T11:05:25.385Z,51.30
2019-04-01T11:07:55.390Z,51.30
2019-04-01T11:10:25.826Z,57.40
2019-04-01T11:12:55.767Z,54.70
2019-04-01T11:15:26.578Z,51.50
2019-04-01T11:17:56.498Z,51.60
2019-04-01T11:20:26.453Z,51.40
2019-04-01T11:22:56.817Z,50.00
2019-04-01T11:25:26.811Z,51.30
2019-04-01T11:27:56.799Z,50.30
2019-04-01T11:30:27.607Z,49.00
2019-04-01T11:32:57.560Z,50.10
2019-04-01T11:35:27.483Z,46.10
2019-04-01T11:37:57.578Z,48.90
2019-04-01T11:40:27.670Z,48.60
2019-04-01T11:42:58.453Z,48.30
2019-04-01T11:45:28.898Z,57.20
2019-04-01T11:47:58.862Z,49.50
2019-04-01T11:50:28.899Z,49.30
2019-04-01T11:52:58.775Z,50.50
2019-04-01T11:55:28.633Z,49.50
2019-04-01T11:57:58.936Z,49.20
2019-04-01T12:00:29.236Z,52.50
2019-04-01T12:02:59.147Z,48.20
2019-04-01T12:05:29.398Z,47.90
2019-04-01T12:07:59.413Z,47.30
2019-04-01T12:10:29.443Z,51.00
2019-04-01T12:13:00.135Z,51.40
2019-04-01T12:15:30.624Z,53.10
2019-04-01T12:18:00.919Z,50.70
2019-04-01T12:20:30.825Z,49.10
2019-04-01T12:23:00.737Z,54.90
2019-04-01T12:25:31.137Z,51.20
2019-04-01T12:28:01.094Z,51.90
2019-04-01T12:30:31.476Z,51.30
2019-04-01T12:33:01.865Z,56.50
2019-04-01T12:35:31.910Z,55.80
2019-04-01T12:38:01.830Z,50.60
2019-04-01T12:40:32.102Z,52.00
2019-04-01T12:43:01.989Z,54.20
2019-04-01T12:45:32.077Z,51.60
2019-04-01T12:48:02.365Z,45.30
2019-04-01T12:50:32.336Z,43.70
2019-04-01T12:53:02.251Z,44.50
2019-04-01T12:55:32.523Z,47.70
2019-04-01T12:58:02.469Z,47.00
2019-04-01T13:00:32.578Z,44.00
2019-04-01T13:03:02.896Z,43.00
2019-04-01T13:05:32.888Z,43.80
2019-04-01T13:08:02.776Z,44.80
2019-04-01T13:10:33.039Z,43.80
2019-04-01T13:13:03.009Z,43.30
2019-04-01T13:15:33.153Z,43.60
2019-04-01T13:18:03.399Z,44.20
2019-04-01T13:20:38.156Z,43.00
2019-04-01T13:23:05.288Z,42.50
2019-04-01T13:25:35.145Z,42.90
2019-04-01T13:28:05.133Z,43.70
2019-04-01T13:30:36.053Z,44.20
2019-04-01T13:33:06.045Z,43.40
2019-04-01T13:35:39.567Z,46.10
2019-04-01T13:38:10.849Z,48.50
2019-04-01T13:40:39.893Z,46.10
2019-04-01T13:43:10.123Z,45.20
2019-04-01T13:45:40.455Z,42.60
2019-04-01T13:48:10.453Z,42.40
2019-04-01T13:50:40.699Z,42.30
2019-04-01T13:53:10.613Z,44.40
2019-04-01T13:55:40.583Z,47.10
2019-04-01T13:58:11.010Z,48.40
2019-04-01T14:00:41.332Z,48.90
2019-04-01T14:03:11.629Z,43.40
2019-04-01T14:05:41.525Z,45.00
2019-04-01T14:08:11.499Z,46.10
2019-04-01T14:10:41.923Z,45.50
2019-04-01T14:13:11.830Z,44.60
2019-04-01T14:15:41.992Z,43.30
2019-04-01T14:18:12.429Z,43.00
2019-04-01T14:20:42.373Z,44.10
2019-04-01T14:23:12.274Z,46.50
2019-04-01T14:25:43.196Z,46.60
2019-04-01T14:28:13.404Z,45.30
2019-04-01T14:30:43.862Z,45.50
2019-04-01T14:33:13.780Z,44.40
2019-04-01T14:35:45.217Z,44.70
2019-04-01T14:38:15.924Z,44.70
2019-04-01T14:40:46.084Z,45.00
2019-04-01T14:43:16.420Z,45.30
2019-04-01T14:45:47.137Z,47.10
2019-04-01T14:48:17.002Z,50.00
2019-04-01T14:50:46.885Z,56.40
2019-04-01T14:53:17.408Z,49.50
2019-04-01T14:55:47.309Z,44.50
2019-04-01T14:58:17.222Z,42.00
2019-04-01T15:00:47.976Z,43.00
2019-04-01T15:03:17.986Z,43.00
2019-04-01T15:05:48.986Z,42.80
2019-04-01T15:08:19.680Z,44.60
2019-04-01T15:10:49.854Z,44.90
2019-04-01T15:13:20.885Z,44.80
2019-04-01T15:15:51.181Z,44.30
2019-04-01T15:18:21.075Z,41.60
2019-04-01T15:20:51.488Z,43.80
2019-04-01T15:23:24.850Z,44.00
2019-04-01T15:25:54.534Z,43.50
2019-04-01T15:28:24.936Z,42.90
2019-04-01T15:30:55.660Z,41.90
2019-04-01T15:33:26.626Z,43.70
2019-04-01T15:35:56.932Z,45.10
2019-04-01T15:38:26.844Z,45.40
2019-04-01T15:40:58.398Z,44.90
2019-04-01T15:43:28.914Z,43.90
2019-04-01T15:45:59.061Z,43.20
2019-04-01T15:48:29.860Z,41.70
2019-04-01T15:50:59.837Z,41.60
2019-04-01T15:53:30.743Z,39.80
2019-04-01T15:56:00.661Z,40.60
2019-04-01T15:58:30.742Z,43.60
2019-04-01T16:01:01.597Z,45.70
2019-04-01T16:03:31.868Z,45.80
2019-04-01T16:06:02.966Z,45.70
2019-04-01T16:08:33.909Z,42.90
2019-04-01T16:11:04.429Z,44.60
2019-04-01T16:13:34.768Z,45.50
2019-04-01T16:16:05.214Z,46.40
2019-04-01T16:18:35.191Z,46.10
2019-04-01T16:21:05.242Z,49.30
2019-04-01T16:23:35.168Z,52.90
2019-04-01T16:26:09.252Z,61.90
2019-04-01T16:28:37.646Z,68.00
2019-04-01T16:31:08.361Z,68.40
2019-04-01T16:33:38.285Z,75.70
2019-04-01T16:36:08.188Z,79.30
2019-04-01T16:38:38.612Z,89.60
2019-04-01T16:41:08.573Z,90.10
2019-04-01T16:43:38.547Z,92.70
2019-04-01T16:46:09.401Z,94.90
2019-04-01T16:48:39.481Z,94.00
2019-04-01T16:51:09.434Z,93.90
2019-04-01T16:53:39.748Z,95.10
2019-04-01T16:56:09.758Z,93.40
2019-04-01T16:58:39.726Z,94.30
2019-04-01T17:01:10.424Z,97.10
2019-04-01T17:03:40.365Z,95.00
2019-04-01T17:06:10.449Z,94.30
2019-04-01T17:08:40.441Z,94.80
2019-04-01T17:11:10.359Z,96.00
2019-04-01T17:13:40.329Z,96.10
2019-04-01T17:16:10.743Z,97.50
2019-04-01T17:18:41.559Z,99.50
2019-04-01T17:21:11.921Z,99.90
2019-04-01T17:23:42.204Z,99.90
2019-04-01T17:26:12.540Z,99.90
2019-04-01T17:28:42.533Z,99.90
2019-04-01T17:31:12.810Z,99.90
2019-04-01T17:33:43.033Z,99.90
2019-04-01T17:36:15.745Z,99.90
2019-04-01T17:38:47.985Z,99.90
2019-04-01T17:41:16.891Z,99.90
2019-04-01T17:43:46.970Z,99.90
2019-04-01T17:46:16.957Z,99.90
2019-04-01T17:48:46.950Z,99.90
2019-04-01T17:51:17.252Z,99.90
2019-04-01T17:53:47.252Z,99.90
2019-04-01T17:56:18.089Z,99.90
2019-04-01T17:58:48.736Z,99.90
2019-04-01T18:01:18.946Z,99.90
2019-04-01T18:03:49.089Z,99.90
2019-04-01T18:06:19.050Z,99.90
2019-04-01T18:08:48.927Z,99.90
2019-04-01T18:11:19.232Z,99.90
2019-04-01T18:13:49.157Z,99.90
2019-04-01T18:16:19.475Z,99.90
2019-04-01T18:18:49.682Z,99.90
2019-04-01T18:21:19.574Z,99.90
2019-04-01T18:23:49.479Z,99.90
2019-04-01T18:26:19.654Z,99.90
2019-04-01T18:28:49.545Z,99.90
2019-04-01T18:31:19.605Z,99.90
2019-04-01T18:33:56.232Z,99.90
2019-04-01T18:36:22.979Z,99.90
2019-04-01T18:38:53.534Z,99.90
2019-04-01T18:41:23.482Z,99.90
2019-04-01T18:43:53.653Z,99.90
2019-04-01T18:46:24.173Z,99.90
2019-04-01T18:48:54.102Z,99.90
2019-04-01T18:51:24.059Z,99.90
2019-04-01T18:53:54.347Z,99.90
2019-04-01T18:56:24.232Z,99.90
2019-04-01T18:58:54.415Z,99.90
2019-04-01T19:01:25.323Z,99.90
2019-04-01T19:03:55.240Z,99.90
2019-04-01T19:06:25.187Z,99.90
2019-04-01T19:09:08.406Z,99.90
2019-04-01T19:11:27.060Z,99.90
2019-04-01T19:13:57.416Z,99.90
2019-04-01T19:16:27.773Z,99.90
2019-04-01T19:18:57.677Z,99.90
2019-04-01T19:21:27.927Z,99.90
2019-04-01T19:23:57.872Z,99.90
2019-04-01T19:26:27.770Z,99.90
2019-04-01T19:28:58.403Z,99.90
2019-04-01T19:31:28.659Z,99.90
2019-04-01T19:33:58.681Z,99.90
2019-04-01T19:36:29.083Z,99.90
2019-04-01T19:39:00.179Z,99.90
2019-04-01T19:41:30.531Z,99.90
2019-04-01T19:44:00.421Z,99.90
2019-04-01T19:46:30.574Z,99.90
2019-04-01T19:49:04.807Z,99.90
2019-04-01T19:51:32.208Z,99.90
2019-04-01T19:54:02.356Z,99.90
2019-04-01T19:56:32.308Z,99.90
2019-04-01T19:59:02.449Z,99.90
2019-04-01T20:01:32.920Z,99.90
2019-04-01T20:04:02.944Z,99.90
2019-04-01T20:06:32.875Z,99.90
2019-04-01T20:09:03.068Z,99.90
2019-04-01T20:11:32.962Z,99.90
2019-04-01T20:14:02.993Z,99.90
2019-04-01T20:16:33.523Z,99.90
2019-04-01T20:19:04.387Z,99.90
2019-04-01T20:21:35.219Z,99.90
2019-04-01T20:24:05.396Z,99.90
2019-04-01T20:26:35.314Z,99.90
2019-04-01T20:29:05.557Z,99.90
2019-04-01T20:31:35.758Z,99.90
2019-04-01T20:34:18.780Z,99.90
2019-04-01T20:36:37.678Z,99.90
2019-04-01T20:39:09.144Z,99.90
2019-04-01T20:41:39.251Z,99.90
2019-04-01T20:44:09.180Z,99.90
2019-04-01T20:46:39.549Z,99.90
2019-04-01T20:49:09.654Z,99.90
2019-04-01T20:51:39.539Z,99.90
2019-04-01T20:54:09.503Z,99.90
2019-04-01T20:56:39.786Z,99.90
2019-04-01T20:59:10.422Z,99.90
2019-04-01T21:01:41.026Z,99.90
2019-04-01T21:04:10.932Z,99.90
2019-04-01T21:06:40.925Z,99.90
2019-04-01T21:09:11.683Z,99.90
2019-04-01T21:11:41.710Z,99.90
2019-04-01T21:14:11.616Z,99.90
2019-04-01T21:16:42.364Z,99.90
2019-04-01T21:19:12.357Z,99.90
2019-04-01T21:21:42.247Z,99.90
2019-04-01T21:24:12.517Z,99.90
2019-04-01T21:26:42.408Z,99.90
2019-04-01T21:29:12.315Z,99.90
2019-04-01T21:31:42.898Z,99.90
2019-04-01T21:34:12.810Z,99.90
2019-04-01T21:36:42.726Z,99.90
2019-04-01T21:39:13.133Z,99.90
2019-04-01T21:41:43.048Z,99.90
2019-04-01T21:44:13.124Z,99.90
2019-04-01T21:46:43.688Z,99.90
2019-04-01T21:49:13.668Z,99.90
2019-04-01T21:51:43.532Z,99.90
2019-04-01T21:54:13.770Z,99.90
2019-04-01T21:56:43.645Z,99.90
2019-04-01T21:59:13.574Z,99.90
2019-04-01T22:01:45.313Z,99.90
2019-04-01T22:04:16.173Z,99.90
2019-04-01T22:06:46.443Z,99.90
2019-04-01T22:09:16.433Z,99.90
2019-04-01T22:11:46.444Z,99.90
2019-04-01T22:14:16.964Z,99.90
2019-04-01T22:16:48.034Z,99.90
2019-04-01T22:19:18.655Z,99.90
2019-04-01T22:21:48.652Z,99.90
2019-04-01T22:24:18.621Z,99.90
2019-04-01T22:26:49.027Z,99.90
2019-04-01T22:29:19.155Z,99.90
2019-04-01T22:31:50.691Z,99.90
2019-04-01T22:34:20.581Z,99.90
2019-04-01T22:36:50.507Z,99.90
2019-04-01T22:39:26.888Z,99.90
2019-04-01T22:41:52.420Z,99.90
2019-04-01T22:44:23.413Z,99.90
2019-04-01T22:46:54.221Z,99.90
2019-04-01T22:49:24.613Z,99.90
2019-04-01T22:51:54.511Z,99.90
2019-04-01T22:54:24.498Z,99.90
2019-04-01T22:56:55.143Z,99.90
2019-04-01T22:59:25.871Z,99.90
2019-04-01T23:01:59.298Z,99.90
2019-04-01T23:04:28.043Z,99.90
2019-04-01T23:06:58.300Z,99.90
2019-04-01T23:09:29.018Z,99.90
2019-04-01T23:11:59.472Z,99.90
2019-04-01T23:14:29.355Z,99.90
2019-04-01T23:16:59.671Z,99.90
2019-04-01T23:19:29.934Z,99.90
2019-04-01T23:22:00.249Z,99.90
2019-04-01T23:24:31.013Z,99.90
2019-04-01T23:27:01.541Z,99.90
2019-04-01T23:29:31.540Z,99.90
2019-04-01T23:32:02.294Z,99.90
2019-04-01T23:34:32.200Z,99.90
2019-04-01T23:37:02.106Z,99.90
2019-04-01T23:39:33.282Z,99.90
2019-04-01T23:42:03.990Z,99.90
2019-04-01T23:44:34.165Z,99.90
2019-04-01T23:47:04.469Z,99.90
2019-04-01T23:49:34.413Z,99.90
2019-04-01T23:52:05.467Z,99.90
2019-04-01T23:54:36.038Z,99.90
2019-04-01T23:57:06.364Z,99.90
2019-04-01T23:59:36.281Z,99.90
